Time,TemperatureF,DewpointF,PressureIn,WindDirection,WindDirectionDegrees,WindSpeedMPH,WindSpeedGustMPH,Humidity,HourlyPrecipIn,Conditions,Clouds,dailyrainin,SolarRadiationWatts/m^2,SoftwareType,DateUTC
2013-05-31 00:07:00,73.3,71.0,30.15,SSE,147,1.0,4.0,93,0.00,,,0.00,0,weatherlink.com 1.10,2013-05-31 04:07:00,
2013-05-31 00:22:00,73.4,71.0,30.16,SE,146,1.0,7.0,93,0.00,,,0.00,0,weatherlink.com 1.10,2013-05-31 04:22:00,
2013-05-31 00:37:00,73.6,72.0,30.16,SSE,164,0.0,3.0,93,0.00,,,0.00,0,weatherlink.com 1.10,2013-05-31 04:37:00,
2013-05-31 00:52:00,73.2,71.0,30.16,SSE,164,0.0,2.0,92,0.00,,,0.00,0,weatherlink.com 1.10,2013-05-31 04:52:00,
2013-05-31 01:07:00,72.8,71.0,30.15,SE,140,0.0,7.0,94,0.00,,,0.00,0,weatherlink.com 1.10,2013-05-31 05:07:00,
2013-05-31 01:22:00,72.9,71.0,30.15,SE,139,0.0,4.0,93,0.00,,,0.00,0,weatherlink.com 1.10,2013-05-31 05:22:00,
2013-05-31 01:37:00,73.0,71.0,30.15,SE,139,0.0,3.0,92,0.00,,,0.00,0,weatherlink.com 1.10,2013-05-31 05:37:00,
2013-05-31 01:52:00,73.0,71.0,30.14,SSE,150,0.0,7.0,92,0.00,,,0.00,0,weatherlink.com 1.10,2013-05-31 05:52:00,
2013-05-31 02:07:00,72.9,71.0,30.14,SSE,147,2.0,7.0,93,0.00,,,0.00,0,weatherlink.com 1.10,2013-05-31 06:07:00,
2013-05-31 02:22:00,73.0,71.0,30.13,SE,136,2.0,7.0,93,0.00,,,0.00,0,weatherlink.com 1.10,2013-05-31 06:22:00,
2013-05-31 02:38:00,73.3,71.0,30.13,SE,133,1.0,8.0,93,0.00,,,0.00,0,weatherlink.com 1.10,2013-05-31 06:38:00,
2013-05-31 02:53:00,73.3,71.0,30.12,SE,140,0.0,5.0,92,0.00,,,0.00,0,weatherlink.com 1.10,2013-05-31 06:53:00,
2013-05-31 03:08:00,73.3,71.0,30.12,SE,132,4.0,8.0,91,0.00,,,0.00,0,weatherlink.com 1.10,2013-05-31 07:08:00,
2013-05-31 03:23:00,73.4,71.0,30.12,SE,134,1.0,7.0,91,0.00,,,0.00,0,weatherlink.com 1.10,2013-05-31 07:23:00,
2013-05-31 03:38:00,73.3,71.0,30.12,SSE,151,1.0,6.0,91,0.00,,,0.00,0,weatherlink.com 1.10,2013-05-31 07:38:00,
2013-05-31 03:53:00,73.3,71.0,30.11,SSE,149,0.0,6.0,91,0.00,,,0.00,0,weatherlink.com 1.10,2013-05-31 07:53:00,
2013-05-31 04:08:00,73.2,71.0,30.11,SE,142,0.0,5.0,91,0.00,,,0.00,0,weatherlink.com 1.10,2013-05-31 08:08:00,
2013-05-31 04:23:00,73.0,71.0,30.11,SE,142,1.0,5.0,92,0.00,,,0.00,0,weatherlink.com 1.10,2013-05-31 08:23:00,
2013-05-31 04:38:00,72.9,70.0,30.11,SE,142,0.0,4.0,91,0.00,,,0.00,0,weatherlink.com 1.10,2013-05-31 08:38:00,
2013-05-31 04:53:00,72.7,70.0,30.11,SE,142,0.0,7.0,91,0.00,,,0.00,0,weatherlink.com 1.10,2013-05-31 08:53:00,
2013-05-31 05:08:00,72.4,70.0,30.12,SE,142,0.0,3.0,91,0.00,,,0.00,0,weatherlink.com 1.10,2013-05-31 09:08:00,
2013-05-31 05:23:00,71.9,70.0,30.12,SE,142,0.0,1.0,92,0.00,,,0.00,0,weatherlink.com 1.10,2013-05-31 09:23:00,
2013-05-31 05:38:00,71.5,70.0,30.12,SE,142,0.0,4.0,94,0.00,,,0.00,0,weatherlink.com 1.10,2013-05-31 09:38:00,
2013-05-31 05:53:00,71.5,70.0,30.12,SE,142,0.0,3.0,94,0.00,,,0.00,0,weatherlink.com 1.10,2013-05-31 09:53:00,
2013-05-31 06:08:00,72.1,70.0,30.12,SE,142,3.0,7.0,93,0.00,,,0.00,0,weatherlink.com 1.10,2013-05-31 10:08:00,
2013-05-31 06:23:00,72.8,70.0,30.12,SE,142,2.0,4.0,91,0.00,,,0.00,0,weatherlink.com 1.10,2013-05-31 10:23:00,
2013-05-31 06:38:00,73.0,70.0,30.12,SE,142,4.0,4.0,90,0.00,,,0.00,11,weatherlink.com 1.10,2013-05-31 10:38:00,
2013-05-31 06:53:00,73.5,70.0,30.13,SE,126,0.0,9.0,89,0.00,,,0.00,19,weatherlink.com 1.10,2013-05-31 10:53:00,
2013-05-31 07:08:00,74.0,71.0,30.13,SE,136,0.0,9.0,89,0.00,,,0.00,28,weatherlink.com 1.10,2013-05-31 11:08:00,
2013-05-31 07:23:00,74.7,71.0,30.13,ESE,119,0.0,9.0,88,0.00,,,0.00,33,weatherlink.com 1.10,2013-05-31 11:23:00,
2013-05-31 07:38:00,75.3,71.0,30.13,SE,142,9.0,16.0,86,0.00,,,0.00,51,weatherlink.com 1.10,2013-05-31 11:38:00,
2013-05-31 07:53:00,75.8,71.0,30.13,SSE,162,7.0,12.0,86,0.00,,,0.00,63,weatherlink.com 1.10,2013-05-31 11:53:00,
2013-05-31 08:08:00,76.4,71.0,30.13,SSE,158,5.0,12.0,84,0.00,,,0.00,54,weatherlink.com 1.10,2013-05-31 12:08:00,
2013-05-31 08:23:00,76.9,72.0,30.14,SE,139,5.0,12.0,85,0.00,,,0.00,91,weatherlink.com 1.10,2013-05-31 12:23:00,
2013-05-31 08:38:00,77.4,72.0,30.14,South,178,5.0,10.0,83,0.00,,,0.00,97,weatherlink.com 1.10,2013-05-31 12:38:00,
2013-05-31 08:53:00,77.6,71.0,30.14,SSE,152,10.0,19.0,80,0.00,,,0.00,142,weatherlink.com 1.10,2013-05-31 12:53:00,
2013-05-31 09:08:00,78.2,72.0,30.15,ESE,115,3.0,17.0,80,0.00,,,0.00,489,weatherlink.com 1.10,2013-05-31 13:08:00,
2013-05-31 09:23:00,79.0,72.0,30.14,ESE,121,9.0,21.0,79,0.00,,,0.00,536,weatherlink.com 1.10,2013-05-31 13:23:00,
2013-05-31 09:38:00,79.5,72.0,30.15,ESE,113,4.0,23.0,77,0.00,,,0.00,636,weatherlink.com 1.10,2013-05-31 13:38:00,
2013-05-31 09:53:00,80.7,72.0,30.15,SSE,148,10.0,19.0,74,0.00,,,0.00,661,weatherlink.com 1.10,2013-05-31 13:53:00,
2013-05-31 10:09:00,81.0,71.0,30.16,ESE,111,10.0,16.0,72,0.00,,,0.00,700,weatherlink.com 1.10,2013-05-31 14:09:00,
2013-05-31 10:24:00,81.4,72.0,30.16,SE,144,14.0,17.0,73,0.00,,,0.00,784,weatherlink.com 1.10,2013-05-31 14:24:00,
2013-05-31 10:40:00,81.9,72.0,30.16,ESE,121,9.0,15.0,73,0.00,,,0.00,988,weatherlink.com 1.10,2013-05-31 14:40:00,
2013-05-31 10:54:00,81.8,73.0,30.17,ENE,73,18.0,18.0,74,0.00,,,0.00,930,weatherlink.com 1.10,2013-05-31 14:54:00,
2013-05-31 11:09:00,82.5,72.0,30.17,SSE,148,11.0,16.0,70,0.00,,,0.00,937,weatherlink.com 1.10,2013-05-31 15:09:00,
2013-05-31 11:24:00,82.5,73.0,30.17,ENE,65,5.0,16.0,73,0.00,,,0.00,856,weatherlink.com 1.10,2013-05-31 15:24:00,
2013-05-31 11:39:00,82.3,72.0,30.17,SE,136,12.0,17.0,72,0.00,,,0.00,236,weatherlink.com 1.10,2013-05-31 15:39:00,
2013-05-31 11:54:00,83.2,72.0,30.17,East,85,9.0,15.0,69,0.00,,,0.00,1074,weatherlink.com 1.10,2013-05-31 15:54:00,
2013-05-31 12:09:00,83.6,73.0,30.17,East,84,14.0,17.0,71,0.00,,,0.00,1141,weatherlink.com 1.10,2013-05-31 16:09:00,
2013-05-31 12:24:00,82.8,75.0,30.17,East,88,7.0,20.0,76,0.00,,,0.00,339,weatherlink.com 1.10,2013-05-31 16:24:00,
2013-05-31 12:39:00,82.5,73.0,30.17,ESE,110,6.0,17.0,73,0.00,,,0.00,313,weatherlink.com 1.10,2013-05-31 16:39:00,
2013-05-31 12:54:00,83.0,73.0,30.17,SE,124,1.0,17.0,71,0.00,,,0.00,1229,weatherlink.com 1.10,2013-05-31 16:54:00,
2013-05-31 13:09:00,82.9,73.0,30.17,East,92,6.0,16.0,71,0.00,,,0.00,387,weatherlink.com 1.10,2013-05-31 17:09:00,
2013-05-31 13:24:00,82.7,72.0,30.17,SSE,148,5.0,18.0,69,0.00,,,0.00,1234,weatherlink.com 1.10,2013-05-31 17:24:00,
2013-05-31 13:39:00,82.2,73.0,30.16,East,87,8.0,13.0,73,0.00,,,0.00,1278,weatherlink.com 1.10,2013-05-31 17:39:00,
2013-05-31 13:54:00,81.8,72.0,30.16,SE,146,4.0,14.0,73,0.00,,,0.00,309,weatherlink.com 1.10,2013-05-31 17:54:00,
2013-05-31 14:09:00,82.6,73.0,30.15,East,89,4.0,16.0,72,0.00,,,0.00,1146,weatherlink.com 1.10,2013-05-31 18:09:00,
2013-05-31 14:24:00,82.2,73.0,30.15,East,98,8.0,19.0,73,0.00,,,0.00,592,weatherlink.com 1.10,2013-05-31 18:24:00,
2013-05-31 14:39:00,82.2,73.0,30.15,SSE,157,9.0,15.0,73,0.00,,,0.00,1130,weatherlink.com 1.10,2013-05-31 18:39:00,
2013-05-31 14:54:00,82.1,73.0,30.14,SE,126,3.0,13.0,74,0.00,,,0.00,276,weatherlink.com 1.10,2013-05-31 18:54:00,
2013-05-31 15:09:00,83.0,72.0,30.14,ESE,117,8.0,16.0,70,0.00,,,0.00,373,weatherlink.com 1.10,2013-05-31 19:09:00,
2013-05-31 15:24:00,83.2,74.0,30.13,SE,139,7.0,20.0,73,0.00,,,0.00,411,weatherlink.com 1.10,2013-05-31 19:24:00,
2013-05-31 15:39:00,81.4,73.0,30.13,East,94,7.0,14.0,76,0.00,,,0.00,257,weatherlink.com 1.10,2013-05-31 19:39:00,
2013-05-31 15:54:00,81.4,72.0,30.13,SSE,150,10.0,17.0,73,0.00,,,0.00,257,weatherlink.com 1.10,2013-05-31 19:54:00,
2013-05-31 16:09:00,81.1,73.0,30.12,ESE,106,7.0,18.0,77,0.00,,,0.00,269,weatherlink.com 1.10,2013-05-31 20:09:00,
2013-05-31 16:24:00,80.6,73.0,30.12,ESE,121,7.0,18.0,77,0.00,,,0.00,858,weatherlink.com 1.10,2013-05-31 20:24:00,
2013-05-31 16:39:00,81.8,73.0,30.12,SE,134,7.0,17.0,75,0.00,,,0.00,810,weatherlink.com 1.10,2013-05-31 20:39:00,
2013-05-31 16:54:00,81.6,71.0,30.12,ESE,120,3.0,19.0,71,0.00,,,0.00,186,weatherlink.com 1.10,2013-05-31 20:54:00,
2013-05-31 17:09:00,82.0,72.0,30.11,SSE,151,9.0,16.0,72,0.00,,,0.00,585,weatherlink.com 1.10,2013-05-31 21:09:00,
2013-05-31 17:24:00,80.4,72.0,30.11,SSE,153,5.0,15.0,75,0.00,,,0.00,265,weatherlink.com 1.10,2013-05-31 21:24:00,
2013-05-31 17:39:00,80.6,72.0,30.11,SE,132,9.0,17.0,75,0.00,,,0.00,188,weatherlink.com 1.10,2013-05-31 21:39:00,
2013-05-31 17:54:00,79.7,71.0,30.10,SE,142,6.0,17.0,75,0.00,,,0.00,107,weatherlink.com 1.10,2013-05-31 21:54:00,
2013-05-31 18:09:00,79.8,72.0,30.11,SE,132,4.0,17.0,76,0.00,,,0.00,114,weatherlink.com 1.10,2013-05-31 22:09:00,
2013-05-31 18:24:00,80.2,72.0,30.11,SE,129,12.0,15.0,76,0.00,,,0.00,127,weatherlink.com 1.10,2013-05-31 22:24:00,
2013-05-31 18:39:00,79.2,72.0,30.10,SE,127,4.0,14.0,79,0.00,,,0.00,202,weatherlink.com 1.10,2013-05-31 22:39:00,
2013-05-31 18:54:00,78.9,72.0,30.10,SE,146,5.0,12.0,79,0.00,,,0.00,81,weatherlink.com 1.10,2013-05-31 22:54:00,
2013-05-31 19:09:00,78.4,72.0,30.11,East,91,13.0,14.0,80,0.00,,,0.00,60,weatherlink.com 1.10,2013-05-31 23:09:00,
2013-05-31 19:24:00,78.3,72.0,30.11,SE,137,2.0,13.0,82,0.00,,,0.00,39,weatherlink.com 1.10,2013-05-31 23:24:00,
2013-05-31 19:39:00,77.7,72.0,30.11,SE,136,7.0,12.0,82,0.00,,,0.00,37,weatherlink.com 1.10,2013-05-31 23:39:00,
2013-05-31 19:54:00,77.4,72.0,30.11,SSE,156,6.0,11.0,83,0.00,,,0.00,21,weatherlink.com 1.10,2013-05-31 23:54:00,
2013-05-31 20:09:00,77.0,72.0,30.11,SSE,148,1.0,11.0,84,0.00,,,0.00,11,weatherlink.com 1.10,2013-06-01 00:09:00,
2013-05-31 20:24:00,76.6,72.0,30.12,SSE,147,1.0,11.0,84,0.00,,,0.00,0,weatherlink.com 1.10,2013-06-01 00:24:00,
2013-05-31 20:39:00,76.4,71.0,30.12,East,97,3.0,8.0,84,0.00,,,0.00,0,weatherlink.com 1.10,2013-06-01 00:39:00,
2013-05-31 20:54:00,76.2,71.0,30.12,ESE,123,2.0,9.0,85,0.00,,,0.00,0,weatherlink.com 1.10,2013-06-01 00:54:00,
2013-05-31 21:09:00,76.0,71.0,30.12,SSE,149,3.0,10.0,85,0.00,,,0.00,0,weatherlink.com 1.10,2013-06-01 01:09:00,
2013-05-31 21:24:00,76.0,71.0,30.12,ESE,104,2.0,7.0,85,0.00,,,0.00,0,weatherlink.com 1.10,2013-06-01 01:24:00,
2013-05-31 21:39:00,75.9,72.0,30.12,SE,127,4.0,9.0,86,0.00,,,0.00,0,weatherlink.com 1.10,2013-06-01 01:39:00,
2013-05-31 21:54:00,76.0,71.0,30.12,SSE,147,5.0,9.0,85,0.00,,,0.00,0,weatherlink.com 1.10,2013-06-01 01:54:00,
2013-05-31 22:09:00,75.9,72.0,30.13,SE,135,0.0,8.0,86,0.00,,,0.00,0,weatherlink.com 1.10,2013-06-01 02:09:00,
2013-05-31 22:24:00,76.2,72.0,30.13,SE,134,2.0,7.0,86,0.00,,,0.00,0,weatherlink.com 1.10,2013-06-01 02:24:00,
2013-05-31 22:39:00,76.2,72.0,30.13,SE,138,5.0,9.0,86,0.00,,,0.00,0,weatherlink.com 1.10,2013-06-01 02:39:00,
2013-05-31 22:54:00,76.2,72.0,30.13,SE,146,0.0,9.0,86,0.00,,,0.00,0,weatherlink.com 1.10,2013-06-01 02:54:00,
2013-05-31 23:09:00,76.1,72.0,30.13,ESE,119,2.0,8.0,86,0.00,,,0.00,0,weatherlink.com 1.10,2013-06-01 03:09:00,
2013-05-31 23:24:00,75.9,71.0,30.13,SSE,159,4.0,7.0,85,0.00,,,0.00,0,weatherlink.com 1.10,2013-06-01 03:24:00,
2013-05-31 23:39:00,75.8,71.0,30.12,SSE,147,3.0,9.0,85,0.00,,,0.00,0,weatherlink.com 1.10,2013-06-01 03:39:00,
2013-05-31 23:54:00,76.0,71.0,30.12,SSE,152,5.0,11.0,85,0.00,,,0.00,0,weatherlink.com 1.10,2013-06-01 03:54:00,